sensor_id;sensor_type;location;lat;lon;timestamp;P1;durP1;ratioP1;P2;durP2;ratioP2
55989;SDS011;41875;55.806;38.082;2024-03-02T00:01:43;60.30;;;30.05;;
55989;SDS011;41875;55.806;38.082;2024-03-02T00:04:47;75.07;;;33.47;;
55989;SDS011;41875;55.806;38.082;2024-03-02T00:07:53;64.43;;;28.75;;
55989;SDS011;41875;55.806;38.082;2024-03-02T00:10:59;72.28;;;29.63;;
55989;SDS011;41875;55.806;38.082;2024-03-02T00:14:06;62.67;;;28.60;;
55989;SDS011;41875;55.806;38.082;2024-03-02T00:17:15;73.75;;;29.23;;
55989;SDS011;41875;55.806;38.082;2024-03-02T00:20:27;54.80;;;23.98;;
55989;SDS011;41875;55.806;38.082;2024-03-02T00:23:32;60.17;;;25.83;;
55989;SDS011;41875;55.806;38.082;2024-03-02T00:26:37;61.33;;;25.98;;
55989;SDS011;41875;55.806;38.082;2024-03-02T00:29:43;58.92;;;25.60;;
55989;SDS011;41875;55.806;38.082;2024-03-02T00:32:47;58.08;;;25.98;;
55989;SDS011;41875;55.806;38.082;2024-03-02T00:35:55;58.45;;;26.92;;
55989;SDS011;41875;55.806;38.082;2024-03-02T00:38:59;64.40;;;26.55;;
55989;SDS011;41875;55.806;38.082;2024-03-02T00:42:03;63.17;;;27.25;;
55989;SDS011;41875;55.806;38.082;2024-03-02T00:45:08;59.45;;;24.77;;
55989;SDS011;41875;55.806;38.082;2024-03-02T00:48:14;61.38;;;25.30;;
55989;SDS011;41875;55.806;38.082;2024-03-02T00:51:18;49.97;;;23.27;;
55989;SDS011;41875;55.806;38.082;2024-03-02T00:54:23;50.75;;;23.45;;
55989;SDS011;41875;55.806;38.082;2024-03-02T00:57:30;59.28;;;26.02;;
55989;SDS011;41875;55.806;38.082;2024-03-02T01:00:38;53.22;;;25.60;;
55989;SDS011;41875;55.806;38.082;2024-03-02T01:03:44;52.33;;;23.65;;
55989;SDS011;41875;55.806;38.082;2024-03-02T01:06:53;54.45;;;25.23;;
55989;SDS011;41875;55.806;38.082;2024-03-02T01:13:07;59.28;;;25.88;;
55989;SDS011;41875;55.806;38.082;2024-03-02T01:16:15;47.20;;;21.77;;
55989;SDS011;41875;55.806;38.082;2024-03-02T01:19:19;60.28;;;26.23;;
55989;SDS011;41875;55.806;38.082;2024-03-02T01:22:25;54.70;;;24.70;;
55989;SDS011;41875;55.806;38.082;2024-03-02T01:25:30;67.13;;;26.48;;
55989;SDS011;41875;55.806;38.082;2024-03-02T01:28:35;59.30;;;26.17;;
55989;SDS011;41875;55.806;38.082;2024-03-02T01:31:45;57.38;;;25.65;;
55989;SDS011;41875;55.806;38.082;2024-03-02T01:34:49;59.55;;;27.13;;
55989;SDS011;41875;55.806;38.082;2024-03-02T01:37:53;60.58;;;27.15;;
55989;SDS011;41875;55.806;38.082;2024-03-02T01:41:00;52.90;;;24.40;;
55989;SDS011;41875;55.806;38.082;2024-03-02T01:48:38;54.78;;;25.25;;
55989;SDS011;41875;55.806;38.082;2024-03-02T01:51:44;58.85;;;25.25;;
55989;SDS011;41875;55.806;38.082;2024-03-02T01:54:49;48.40;;;23.95;;
55989;SDS011;41875;55.806;38.082;2024-03-02T01:57:59;59.03;;;22.40;;
55989;SDS011;41875;55.806;38.082;2024-03-02T02:01:10;52.55;;;24.80;;
55989;SDS011;41875;55.806;38.082;2024-03-02T02:04:17;61.45;;;24.50;;
55989;SDS011;41875;55.806;38.082;2024-03-02T02:07:27;55.00;;;25.02;;
55989;SDS011;41875;55.806;38.082;2024-03-02T02:10:30;52.88;;;23.52;;
55989;SDS011;41875;55.806;38.082;2024-03-02T02:13:34;54.95;;;24.98;;
55989;SDS011;41875;55.806;38.082;2024-03-02T02:16:43;58.13;;;24.58;;
55989;SDS011;41875;55.806;38.082;2024-03-02T02:19:51;52.28;;;22.42;;
55989;SDS011;41875;55.806;38.082;2024-03-02T02:22:57;51.83;;;23.38;;
55989;SDS011;41875;55.806;38.082;2024-03-02T02:26:02;53.13;;;24.10;;
55989;SDS011;41875;55.806;38.082;2024-03-02T02:29:11;58.45;;;24.58;;
55989;SDS011;41875;55.806;38.082;2024-03-02T02:32:15;49.10;;;21.65;;
55989;SDS011;41875;55.806;38.082;2024-03-02T02:35:21;48.70;;;22.52;;
55989;SDS011;41875;55.806;38.082;2024-03-02T02:38:28;55.70;;;24.85;;
55989;SDS011;41875;55.806;38.082;2024-03-02T02:41:33;48.20;;;23.00;;
55989;SDS011;41875;55.806;38.082;2024-03-02T02:44:39;58.38;;;24.75;;
55989;SDS011;41875;55.806;38.082;2024-03-02T02:47:43;51.65;;;23.88;;
55989;SDS011;41875;55.806;38.082;2024-03-02T02:50:47;58.08;;;24.67;;
55989;SDS011;41875;55.806;38.082;2024-03-02T02:53:52;54.08;;;24.70;;
55989;SDS011;41875;55.806;38.082;2024-03-02T02:56:56;73.82;;;28.58;;
55989;SDS011;41875;55.806;38.082;2024-03-02T03:00:02;60.63;;;25.92;;
55989;SDS011;41875;55.806;38.082;2024-03-02T03:03:21;56.67;;;26.05;;
55989;SDS011;41875;55.806;38.082;2024-03-02T03:06:28;60.95;;;27.20;;
55989;SDS011;41875;55.806;38.082;2024-03-02T03:09:38;53.30;;;24.48;;
55989;SDS011;41875;55.806;38.082;2024-03-02T03:12:42;65.22;;;25.42;;
55989;SDS011;41875;55.806;38.082;2024-03-02T03:15:47;50.38;;;23.75;;
55989;SDS011;41875;55.806;38.082;2024-03-02T03:18:53;52.08;;;23.77;;
55989;SDS011;41875;55.806;38.082;2024-03-02T03:21:57;53.30;;;23.40;;
55989;SDS011;41875;55.806;38.082;2024-03-02T03:25:10;51.67;;;23.02;;
55989;SDS011;41875;55.806;38.082;2024-03-02T03:28:15;55.58;;;22.85;;
55989;SDS011;41875;55.806;38.082;2024-03-02T03:31:23;53.40;;;22.77;;
55989;SDS011;41875;55.806;38.082;2024-03-02T03:34:28;52.42;;;23.63;;
55989;SDS011;41875;55.806;38.082;2024-03-02T03:37:32;52.67;;;22.25;;
55989;SDS011;41875;55.806;38.082;2024-03-02T03:40:40;53.67;;;23.33;;
55989;SDS011;41875;55.806;38.082;2024-03-02T03:43:46;50.30;;;23.08;;
55989;SDS011;41875;55.806;38.082;2024-03-02T03:47:06;58.47;;;24.50;;
55989;SDS011;41875;55.806;38.082;2024-03-02T03:50:41;59.40;;;24.65;;
55989;SDS011;41875;55.806;38.082;2024-03-02T03:54:11;59.92;;;24.42;;
55989;SDS011;41875;55.806;38.082;2024-03-02T03:57:26;60.03;;;26.77;;
55989;SDS011;41875;55.806;38.082;2024-03-02T04:00:52;57.90;;;25.45;;
55989;SDS011;41875;55.806;38.082;2024-03-02T04:04:02;52.55;;;24.98;;
55989;SDS011;41875;55.806;38.082;2024-03-02T04:07:06;54.38;;;24.25;;
55989;SDS011;41875;55.806;38.082;2024-03-02T04:10:14;46.38;;;20.15;;
55989;SDS011;41875;55.806;38.082;2024-03-02T04:13:23;45.25;;;20.25;;
55989;SDS011;41875;55.806;38.082;2024-03-02T04:16:26;48.17;;;22.48;;
55989;SDS011;41875;55.806;38.082;2024-03-02T04:19:31;51.20;;;22.27;;
55989;SDS011;41875;55.806;38.082;2024-03-02T04:22:34;56.13;;;23.48;;
55989;SDS011;41875;55.806;38.082;2024-03-02T04:25:38;45.85;;;20.15;;
55989;SDS011;41875;55.806;38.082;2024-03-02T04:28:43;44.88;;;20.98;;
55989;SDS011;41875;55.806;38.082;2024-03-02T04:31:47;46.63;;;21.10;;
55989;SDS011;41875;55.806;38.082;2024-03-02T04:34:53;48.95;;;20.83;;
55989;SDS011;41875;55.806;38.082;2024-03-02T04:37:57;52.08;;;21.33;;
55989;SDS011;41875;55.806;38.082;2024-03-02T04:41:01;49.55;;;22.48;;
55989;SDS011;41875;55.806;38.082;2024-03-02T04:44:09;49.08;;;22.40;;
55989;SDS011;41875;55.806;38.082;2024-03-02T04:47:15;47.83;;;20.77;;
55989;SDS011;41875;55.806;38.082;2024-03-02T04:50:19;49.47;;;21.35;;
55989;SDS011;41875;55.806;38.082;2024-03-02T04:53:23;49.22;;;21.67;;
55989;SDS011;41875;55.806;38.082;2024-03-02T04:56:28;51.55;;;23.40;;
55989;SDS011;41875;55.806;38.082;2024-03-02T05:08:51;49.42;;;22.95;;
55989;SDS011;41875;55.806;38.082;2024-03-02T05:11:55;47.58;;;21.52;;
55989;SDS011;41875;55.806;38.082;2024-03-02T05:15:21;51.10;;;22.45;;
55989;SDS011;41875;55.806;38.082;2024-03-02T05:18:25;47.03;;;22.88;;
55989;SDS011;41875;55.806;38.082;2024-03-02T05:21:29;53.03;;;21.52;;
55989;SDS011;41875;55.806;38.082;2024-03-02T05:24:34;40.53;;;20.10;;
55989;SDS011;41875;55.806;38.082;2024-03-02T05:27:38;57.47;;;22.08;;
55989;SDS011;41875;55.806;38.082;2024-03-02T05:30:42;52.35;;;22.70;;
55989;SDS011;41875;55.806;38.082;2024-03-02T05:33:46;49.83;;;22.70;;
55989;SDS011;41875;55.806;38.082;2024-03-02T05:36:51;45.45;;;22.95;;
55989;SDS011;41875;55.806;38.082;2024-03-02T05:39:58;47.00;;;22.08;;
55989;SDS011;41875;55.806;38.082;2024-03-02T05:43:04;46.72;;;21.38;;
55989;SDS011;41875;55.806;38.082;2024-03-02T05:46:07;49.10;;;21.45;;
55989;SDS011;41875;55.806;38.082;2024-03-02T05:49:11;56.03;;;23.63;;
55989;SDS011;41875;55.806;38.082;2024-03-02T05:52:15;50.92;;;23.55;;
55989;SDS011;41875;55.806;38.082;2024-03-02T05:55:27;46.63;;;23.27;;
55989;SDS011;41875;55.806;38.082;2024-03-02T05:58:31;51.15;;;23.02;;
55989;SDS011;41875;55.806;38.082;2024-03-02T06:01:52;50.17;;;22.77;;
55989;SDS011;41875;55.806;38.082;2024-03-02T06:04:56;47.88;;;22.73;;
55989;SDS011;41875;55.806;38.082;2024-03-02T06:08:01;55.88;;;23.77;;
55989;SDS011;41875;55.806;38.082;2024-03-02T06:11:08;55.03;;;23.80;;
55989;SDS011;41875;55.806;38.082;2024-03-02T06:14:15;51.60;;;22.60;;
55989;SDS011;41875;55.806;38.082;2024-03-02T06:17:19;56.17;;;25.25;;
55989;SDS011;41875;55.806;38.082;2024-03-02T06:20:24;53.50;;;25.02;;
55989;SDS011;41875;55.806;38.082;2024-03-02T06:23:50;48.07;;;24.40;;
55989;SDS011;41875;55.806;38.082;2024-03-02T06:27:15;50.42;;;23.33;;
55989;SDS011;41875;55.806;38.082;2024-03-02T06:30:19;54.40;;;25.08;;
55989;SDS011;41875;55.806;38.082;2024-03-02T06:33:23;55.30;;;25.67;;
55989;SDS011;41875;55.806;38.082;2024-03-02T06:36:38;46.75;;;23.00;;
55989;SDS011;41875;55.806;38.082;2024-03-02T06:39:44;51.63;;;23.98;;
55989;SDS011;41875;55.806;38.082;2024-03-02T06:42:52;61.78;;;24.00;;
55989;SDS011;41875;55.806;38.082;2024-03-02T06:45:57;53.00;;;23.38;;
55989;SDS011;41875;55.806;38.082;2024-03-02T06:49:01;53.67;;;23.55;;
55989;SDS011;41875;55.806;38.082;2024-03-02T06:52:07;54.90;;;24.35;;
55989;SDS011;41875;55.806;38.082;2024-03-02T06:55:14;47.15;;;21.17;;
55989;SDS011;41875;55.806;38.082;2024-03-02T06:58:20;48.17;;;23.58;;
55989;SDS011;41875;55.806;38.082;2024-03-02T07:01:24;45.95;;;21.15;;
55989;SDS011;41875;55.806;38.082;2024-03-02T07:04:28;55.72;;;25.05;;
55989;SDS011;41875;55.806;38.082;2024-03-02T07:07:32;49.40;;;22.92;;
55989;SDS011;41875;55.806;38.082;2024-03-02T07:10:36;48.80;;;22.98;;
55989;SDS011;41875;55.806;38.082;2024-03-02T07:13:41;47.95;;;23.25;;
55989;SDS011;41875;55.806;38.082;2024-03-02T07:16:45;54.22;;;25.73;;
55989;SDS011;41875;55.806;38.082;2024-03-02T07:19:49;49.50;;;22.33;;
55989;SDS011;41875;55.806;38.082;2024-03-02T07:22:53;52.25;;;22.23;;
55989;SDS011;41875;55.806;38.082;2024-03-02T07:25:58;48.55;;;22.63;;
55989;SDS011;41875;55.806;38.082;2024-03-02T07:29:07;55.85;;;22.98;;
55989;SDS011;41875;55.806;38.082;2024-03-02T07:32:20;40.90;;;19.80;;
55989;SDS011;41875;55.806;38.082;2024-03-02T07:35:24;51.25;;;23.48;;
55989;SDS011;41875;55.806;38.082;2024-03-02T07:38:29;48.60;;;22.60;;
55989;SDS011;41875;55.806;38.082;2024-03-02T07:41:34;44.42;;;22.17;;
55989;SDS011;41875;55.806;38.082;2024-03-02T07:44:39;46.33;;;21.67;;
55989;SDS011;41875;55.806;38.082;2024-03-02T07:47:44;44.15;;;21.95;;
55989;SDS011;41875;55.806;38.082;2024-03-02T07:50:47;39.17;;;19.20;;
55989;SDS011;41875;55.806;38.082;2024-03-02T07:53:51;50.78;;;21.30;;
55989;SDS011;41875;55.806;38.082;2024-03-02T07:56:56;49.15;;;21.88;;
55989;SDS011;41875;55.806;38.082;2024-03-02T08:00:02;51.67;;;21.60;;
55989;SDS011;41875;55.806;38.082;2024-03-02T08:03:13;48.63;;;21.98;;
55989;SDS011;41875;55.806;38.082;2024-03-02T08:06:17;49.00;;;22.60;;
55989;SDS011;41875;55.806;38.082;2024-03-02T08:09:23;48.88;;;20.95;;
55989;SDS011;41875;55.806;38.082;2024-03-02T08:12:28;45.33;;;22.60;;
55989;SDS011;41875;55.806;38.082;2024-03-02T08:15:33;44.53;;;20.60;;
55989;SDS011;41875;55.806;38.082;2024-03-02T08:18:37;50.33;;;21.20;;
55989;SDS011;41875;55.806;38.082;2024-03-02T08:21:42;45.90;;;22.65;;
55989;SDS011;41875;55.806;38.082;2024-03-02T08:24:49;54.90;;;23.55;;
55989;SDS011;41875;55.806;38.082;2024-03-02T08:27:56;49.72;;;21.88;;
55989;SDS011;41875;55.806;38.082;2024-03-02T08:31:02;45.30;;;21.63;;
55989;SDS011;41875;55.806;38.082;2024-03-02T08:34:10;50.75;;;22.65;;
55989;SDS011;41875;55.806;38.082;2024-03-02T08:37:14;56.42;;;24.40;;
55989;SDS011;41875;55.806;38.082;2024-03-02T08:40:18;51.75;;;22.95;;
55989;SDS011;41875;55.806;38.082;2024-03-02T08:43:22;49.45;;;22.90;;
55989;SDS011;41875;55.806;38.082;2024-03-02T08:46:28;45.35;;;22.15;;
55989;SDS011;41875;55.806;38.082;2024-03-02T08:49:33;51.92;;;24.15;;
55989;SDS011;41875;55.806;38.082;2024-03-02T08:52:39;47.67;;;22.77;;
55989;SDS011;41875;55.806;38.082;2024-03-02T08:55:44;43.72;;;22.27;;
55989;SDS011;41875;55.806;38.082;2024-03-02T08:58:48;46.05;;;22.25;;
55989;SDS011;41875;55.806;38.082;2024-03-02T09:01:54;50.42;;;24.60;;
55989;SDS011;41875;55.806;38.082;2024-03-02T09:04:58;48.47;;;23.70;;
55989;SDS011;41875;55.806;38.082;2024-03-02T09:08:03;43.05;;;22.67;;
55989;SDS011;41875;55.806;38.082;2024-03-02T09:11:08;48.70;;;23.10;;
55989;SDS011;41875;55.806;38.082;2024-03-02T09:14:15;53.97;;;23.52;;
55989;SDS011;41875;55.806;38.082;2024-03-02T09:17:26;51.78;;;23.95;;
55989;SDS011;41875;55.806;38.082;2024-03-02T09:20:30;52.45;;;24.85;;
55989;SDS011;41875;55.806;38.082;2024-03-02T09:23:33;43.63;;;23.23;;
55989;SDS011;41875;55.806;38.082;2024-03-02T09:26:41;64.65;;;28.15;;
55989;SDS011;41875;55.806;38.082;2024-03-02T09:29:44;49.53;;;22.67;;
55989;SDS011;41875;55.806;38.082;2024-03-02T09:32:49;51.22;;;24.08;;
55989;SDS011;41875;55.806;38.082;2024-03-02T09:35:53;50.45;;;21.17;;
55989;SDS011;41875;55.806;38.082;2024-03-02T09:38:59;46.03;;;21.40;;
55989;SDS011;41875;55.806;38.082;2024-03-02T09:42:03;44.10;;;20.50;;
55989;SDS011;41875;55.806;38.082;2024-03-02T09:45:08;46.08;;;20.80;;
55989;SDS011;41875;55.806;38.082;2024-03-02T09:48:14;46.83;;;20.85;;
55989;SDS011;41875;55.806;38.082;2024-03-02T09:51:20;43.97;;;22.77;;
55989;SDS011;41875;55.806;38.082;2024-03-02T09:54:24;48.63;;;21.05;;
55989;SDS011;41875;55.806;38.082;2024-03-02T09:57:28;46.97;;;20.77;;
55989;SDS011;41875;55.806;38.082;2024-03-02T10:00:31;49.85;;;22.38;;
55989;SDS011;41875;55.806;38.082;2024-03-02T10:03:37;45.58;;;21.55;;
55989;SDS011;41875;55.806;38.082;2024-03-02T10:09:48;39.30;;;16.85;;
55989;SDS011;41875;55.806;38.082;2024-03-02T10:12:55;38.63;;;17.23;;
55989;SDS011;41875;55.806;38.082;2024-03-02T10:16:11;36.00;;;15.10;;
55989;SDS011;41875;55.806;38.082;2024-03-02T10:19:17;35.73;;;16.10;;
55989;SDS011;41875;55.806;38.082;2024-03-02T10:22:22;35.28;;;15.10;;
55989;SDS011;41875;55.806;38.082;2024-03-02T10:25:29;34.35;;;16.27;;
55989;SDS011;41875;55.806;38.082;2024-03-02T10:28:51;36.45;;;14.80;;
55989;SDS011;41875;55.806;38.082;2024-03-02T10:32:02;38.75;;;17.40;;
55989;SDS011;41875;55.806;38.082;2024-03-02T10:35:07;33.30;;;15.82;;
55989;SDS011;41875;55.806;38.082;2024-03-02T10:38:11;33.90;;;15.90;;
55989;SDS011;41875;55.806;38.082;2024-03-02T10:41:16;35.30;;;17.08;;
55989;SDS011;41875;55.806;38.082;2024-03-02T10:44:21;34.40;;;16.73;;
55989;SDS011;41875;55.806;38.082;2024-03-02T10:47:26;34.45;;;15.93;;
55989;SDS011;41875;55.806;38.082;2024-03-02T10:50:33;37.30;;;17.75;;
55989;SDS011;41875;55.806;38.082;2024-03-02T10:53:37;37.30;;;17.52;;
55989;SDS011;41875;55.806;38.082;2024-03-02T10:56:48;46.90;;;20.25;;
55989;SDS011;41875;55.806;38.082;2024-03-02T10:59:52;35.45;;;16.80;;
55989;SDS011;41875;55.806;38.082;2024-03-02T11:03:05;37.25;;;18.38;;
55989;SDS011;41875;55.806;38.082;2024-03-02T11:06:15;36.47;;;17.60;;
55989;SDS011;41875;55.806;38.082;2024-03-02T11:09:21;42.92;;;16.90;;
55989;SDS011;41875;55.806;38.082;2024-03-02T11:12:29;38.08;;;18.48;;
55989;SDS011;41875;55.806;38.082;2024-03-02T11:15:34;41.53;;;17.85;;
55989;SDS011;41875;55.806;38.082;2024-03-02T11:18:39;39.88;;;18.15;;
55989;SDS011;41875;55.806;38.082;2024-03-02T11:21:46;40.50;;;18.95;;
55989;SDS011;41875;55.806;38.082;2024-03-02T11:24:50;33.85;;;16.80;;
55989;SDS011;41875;55.806;38.082;2024-03-02T11:27:59;39.50;;;16.77;;
55989;SDS011;41875;55.806;38.082;2024-03-02T11:31:04;34.20;;;17.15;;
55989;SDS011;41875;55.806;38.082;2024-03-02T11:34:17;33.30;;;15.25;;
55989;SDS011;41875;55.806;38.082;2024-03-02T11:37:24;34.13;;;16.08;;
55989;SDS011;41875;55.806;38.082;2024-03-02T11:40:28;35.30;;;15.23;;
55989;SDS011;41875;55.806;38.082;2024-03-02T11:43:32;31.23;;;14.85;;
55989;SDS011;41875;55.806;38.082;2024-03-02T11:46:36;31.50;;;15.30;;
55989;SDS011;41875;55.806;38.082;2024-03-02T11:49:43;32.40;;;15.73;;
55989;SDS011;41875;55.806;38.082;2024-03-02T11:52:49;34.72;;;14.98;;
55989;SDS011;41875;55.806;38.082;2024-03-02T11:55:53;35.00;;;15.45;;
55989;SDS011;41875;55.806;38.082;2024-03-02T11:58:59;31.73;;;15.90;;
55989;SDS011;41875;55.806;38.082;2024-03-02T12:02:04;30.92;;;14.73;;
55989;SDS011;41875;55.806;38.082;2024-03-02T12:05:08;30.20;;;14.45;;
55989;SDS011;41875;55.806;38.082;2024-03-02T12:08:14;34.50;;;14.68;;
55989;SDS011;41875;55.806;38.082;2024-03-02T12:11:17;27.27;;;14.02;;
55989;SDS011;41875;55.806;38.082;2024-03-02T12:14:23;35.08;;;15.55;;
55989;SDS011;41875;55.806;38.082;2024-03-02T12:17:29;27.30;;;13.82;;
55989;SDS011;41875;55.806;38.082;2024-03-02T12:20:33;32.17;;;14.70;;
55989;SDS011;41875;55.806;38.082;2024-03-02T12:23:40;26.92;;;14.73;;
55989;SDS011;41875;55.806;38.082;2024-03-02T12:26:43;31.27;;;14.98;;
55989;SDS011;41875;55.806;38.082;2024-03-02T12:29:48;30.38;;;14.00;;
55989;SDS011;41875;55.806;38.082;2024-03-02T12:32:52;30.38;;;14.18;;
55989;SDS011;41875;55.806;38.082;2024-03-02T12:35:56;25.05;;;13.57;;
55989;SDS011;41875;55.806;38.082;2024-03-02T12:39:01;30.85;;;15.27;;
55989;SDS011;41875;55.806;38.082;2024-03-02T12:42:05;32.42;;;14.75;;
55989;SDS011;41875;55.806;38.082;2024-03-02T12:45:09;26.42;;;13.40;;
55989;SDS011;41875;55.806;38.082;2024-03-02T12:48:13;29.05;;;14.45;;
55989;SDS011;41875;55.806;38.082;2024-03-02T12:51:17;24.58;;;14.13;;
55989;SDS011;41875;55.806;38.082;2024-03-02T12:54:23;27.02;;;13.23;;
55989;SDS011;41875;55.806;38.082;2024-03-02T12:57:27;30.60;;;14.35;;
55989;SDS011;41875;55.806;38.082;2024-03-02T13:00:31;28.33;;;14.40;;
55989;SDS011;41875;55.806;38.082;2024-03-02T13:03:37;32.28;;;14.88;;
55989;SDS011;41875;55.806;38.082;2024-03-02T13:06:41;32.15;;;16.13;;
55989;SDS011;41875;55.806;38.082;2024-03-02T13:09:46;29.67;;;13.90;;
55989;SDS011;41875;55.806;38.082;2024-03-02T13:12:50;33.55;;;15.27;;
55989;SDS011;41875;55.806;38.082;2024-03-02T13:15:55;28.63;;;14.13;;
55989;SDS011;41875;55.806;38.082;2024-03-02T13:18:59;30.45;;;15.75;;
55989;SDS011;41875;55.806;38.082;2024-03-02T13:22:04;30.42;;;16.25;;
55989;SDS011;41875;55.806;38.082;2024-03-02T13:25:09;33.35;;;14.93;;
55989;SDS011;41875;55.806;38.082;2024-03-02T13:28:14;29.45;;;15.05;;
55989;SDS011;41875;55.806;38.082;2024-03-02T13:31:17;25.95;;;14.50;;
55989;SDS011;41875;55.806;38.082;2024-03-02T13:34:21;28.35;;;13.60;;
55989;SDS011;41875;55.806;38.082;2024-03-02T13:37:25;29.80;;;13.68;;
55989;SDS011;41875;55.806;38.082;2024-03-02T13:40:30;35.05;;;14.85;;
55989;SDS011;41875;55.806;38.082;2024-03-02T13:46:41;28.75;;;13.52;;
55989;SDS011;41875;55.806;38.082;2024-03-02T13:49:47;30.75;;;16.33;;
55989;SDS011;41875;55.806;38.082;2024-03-02T13:52:51;33.95;;;15.48;;
55989;SDS011;41875;55.806;38.082;2024-03-02T13:55:58;26.90;;;13.70;;
55989;SDS011;41875;55.806;38.082;2024-03-02T13:59:02;29.20;;;14.25;;
55989;SDS011;41875;55.806;38.082;2024-03-02T14:02:06;30.77;;;15.13;;
55989;SDS011;41875;55.806;38.082;2024-03-02T14:05:11;35.85;;;15.50;;
55989;SDS011;41875;55.806;38.082;2024-03-02T14:08:15;28.70;;;14.40;;
55989;SDS011;41875;55.806;38.082;2024-03-02T14:11:21;36.17;;;15.02;;
55989;SDS011;41875;55.806;38.082;2024-03-02T14:14:24;31.23;;;15.48;;
55989;SDS011;41875;55.806;38.082;2024-03-02T14:17:28;31.65;;;15.13;;
55989;SDS011;41875;55.806;38.082;2024-03-02T14:20:33;34.80;;;16.38;;
55989;SDS011;41875;55.806;38.082;2024-03-02T14:23:37;31.48;;;15.52;;
55989;SDS011;41875;55.806;38.082;2024-03-02T14:26:43;35.97;;;16.73;;
55989;SDS011;41875;55.806;38.082;2024-03-02T14:29:48;37.75;;;15.68;;
55989;SDS011;41875;55.806;38.082;2024-03-02T14:32:52;37.92;;;16.77;;
55989;SDS011;41875;55.806;38.082;2024-03-02T14:35:55;38.40;;;17.80;;
55989;SDS011;41875;55.806;38.082;2024-03-02T14:38:59;37.50;;;17.30;;
55989;SDS011;41875;55.806;38.082;2024-03-02T14:42:04;39.05;;;17.42;;
55989;SDS011;41875;55.806;38.082;2024-03-02T14:45:08;37.75;;;17.27;;
55989;SDS011;41875;55.806;38.082;2024-03-02T14:48:12;36.15;;;17.27;;
55989;SDS011;41875;55.806;38.082;2024-03-02T14:51:16;34.40;;;16.45;;
55989;SDS011;41875;55.806;38.082;2024-03-02T14:54:20;34.65;;;16.75;;
55989;SDS011;41875;55.806;38.082;2024-03-02T14:57:25;34.47;;;17.15;;
55989;SDS011;41875;55.806;38.082;2024-03-02T15:00:29;35.33;;;16.20;;
55989;SDS011;41875;55.806;38.082;2024-03-02T15:03:33;38.08;;;16.45;;
55989;SDS011;41875;55.806;38.082;2024-03-02T15:06:37;29.70;;;14.98;;
55989;SDS011;41875;55.806;38.082;2024-03-02T15:09:41;33.58;;;15.43;;
55989;SDS011;41875;55.806;38.082;2024-03-02T15:12:46;30.90;;;15.75;;
55989;SDS011;41875;55.806;38.082;2024-03-02T15:15:50;37.10;;;17.13;;
55989;SDS011;41875;55.806;38.082;2024-03-02T15:18:54;33.03;;;16.98;;
55989;SDS011;41875;55.806;38.082;2024-03-02T15:21:58;33.30;;;17.55;;
55989;SDS011;41875;55.806;38.082;2024-03-02T15:25:02;31.13;;;16.00;;
55989;SDS011;41875;55.806;38.082;2024-03-02T15:28:07;30.70;;;15.93;;
55989;SDS011;41875;55.806;38.082;2024-03-02T15:31:11;35.50;;;17.80;;
55989;SDS011;41875;55.806;38.082;2024-03-02T15:34:15;30.88;;;15.07;;
55989;SDS011;41875;55.806;38.082;2024-03-02T15:37:19;31.95;;;16.50;;
55989;SDS011;41875;55.806;38.082;2024-03-02T15:40:22;29.92;;;14.88;;
55989;SDS011;41875;55.806;38.082;2024-03-02T15:43:27;35.92;;;18.38;;
55989;SDS011;41875;55.806;38.082;2024-03-02T15:46:32;37.80;;;18.55;;
55989;SDS011;41875;55.806;38.082;2024-03-02T15:49:37;32.88;;;17.33;;
55989;SDS011;41875;55.806;38.082;2024-03-02T15:52:40;38.75;;;19.75;;
55989;SDS011;41875;55.806;38.082;2024-03-02T15:55:47;38.35;;;17.73;;
55989;SDS011;41875;55.806;38.082;2024-03-02T15:58:52;37.28;;;18.10;;
55989;SDS011;41875;55.806;38.082;2024-03-02T16:01:55;40.10;;;19.13;;
55989;SDS011;41875;55.806;38.082;2024-03-02T16:05:00;40.08;;;19.00;;
55989;SDS011;41875;55.806;38.082;2024-03-02T16:08:04;36.17;;;18.10;;
55989;SDS011;41875;55.806;38.082;2024-03-02T16:11:11;35.75;;;17.15;;
55989;SDS011;41875;55.806;38.082;2024-03-02T16:14:16;32.17;;;16.38;;
55989;SDS011;41875;55.806;38.082;2024-03-02T16:17:23;36.70;;;17.05;;
55989;SDS011;41875;55.806;38.082;2024-03-02T16:20:30;32.97;;;16.95;;
55989;SDS011;41875;55.806;38.082;2024-03-02T16:23:34;35.03;;;17.45;;
55989;SDS011;41875;55.806;38.082;2024-03-02T16:26:41;36.05;;;17.10;;
55989;SDS011;41875;55.806;38.082;2024-03-02T16:29:47;34.92;;;16.77;;
55989;SDS011;41875;55.806;38.082;2024-03-02T16:32:54;33.10;;;15.82;;
55989;SDS011;41875;55.806;38.082;2024-03-02T16:36:00;35.80;;;17.17;;
55989;SDS011;41875;55.806;38.082;2024-03-02T16:39:07;39.90;;;17.75;;
55989;SDS011;41875;55.806;38.082;2024-03-02T16:42:13;33.55;;;16.73;;
55989;SDS011;41875;55.806;38.082;2024-03-02T16:45:24;35.25;;;16.95;;
55989;SDS011;41875;55.806;38.082;2024-03-02T16:48:31;37.42;;;17.02;;
55989;SDS011;41875;55.806;38.082;2024-03-02T16:51:39;41.42;;;18.83;;
55989;SDS011;41875;55.806;38.082;2024-03-02T16:54:48;33.92;;;17.33;;
55989;SDS011;41875;55.806;38.082;2024-03-02T16:57:55;37.20;;;17.27;;
55989;SDS011;41875;55.806;38.082;2024-03-02T17:01:05;35.53;;;17.95;;
55989;SDS011;41875;55.806;38.082;2024-03-02T17:04:09;33.63;;;16.92;;
55989;SDS011;41875;55.806;38.082;2024-03-02T17:07:15;38.97;;;19.55;;
55989;SDS011;41875;55.806;38.082;2024-03-02T17:10:19;37.75;;;18.02;;
55989;SDS011;41875;55.806;38.082;2024-03-02T17:13:24;36.63;;;18.88;;
55989;SDS011;41875;55.806;38.082;2024-03-02T17:16:34;37.15;;;17.70;;
55989;SDS011;41875;55.806;38.082;2024-03-02T17:19:41;35.05;;;17.95;;
55989;SDS011;41875;55.806;38.082;2024-03-02T17:22:45;37.28;;;17.88;;
55989;SDS011;41875;55.806;38.082;2024-03-02T17:25:49;36.22;;;17.73;;
55989;SDS011;41875;55.806;38.082;2024-03-02T17:28:55;38.88;;;19.30;;
55989;SDS011;41875;55.806;38.082;2024-03-02T17:32:04;42.00;;;19.58;;
55989;SDS011;41875;55.806;38.082;2024-03-02T17:35:12;38.75;;;19.20;;
55989;SDS011;41875;55.806;38.082;2024-03-02T17:38:20;38.00;;;18.80;;
55989;SDS011;41875;55.806;38.082;2024-03-02T17:41:28;39.13;;;19.92;;
55989;SDS011;41875;55.806;38.082;2024-03-02T17:44:36;38.67;;;21.05;;
55989;SDS011;41875;55.806;38.082;2024-03-02T17:47:43;45.83;;;21.42;;
55989;SDS011;41875;55.806;38.082;2024-03-02T17:50:48;38.88;;;19.25;;
55989;SDS011;41875;55.806;38.082;2024-03-02T17:53:54;42.45;;;20.58;;
55989;SDS011;41875;55.806;38.082;2024-03-02T17:57:00;37.20;;;19.15;;
55989;SDS011;41875;55.806;38.082;2024-03-02T18:00:09;43.80;;;20.58;;
55989;SDS011;41875;55.806;38.082;2024-03-02T18:03:20;41.97;;;20.83;;
55989;SDS011;41875;55.806;38.082;2024-03-02T18:06:26;40.22;;;20.08;;
55989;SDS011;41875;55.806;38.082;2024-03-02T18:09:31;43.15;;;20.20;;
55989;SDS011;41875;55.806;38.082;2024-03-02T18:12:38;49.58;;;21.85;;
55989;SDS011;41875;55.806;38.082;2024-03-02T18:15:48;39.22;;;20.20;;